Opal, WY (83124)

6:34 PM MDT on August 27, 2016 (GMT -0600)
CST Inc. D'ville Shop | | Change Station
Active Advisory: Fire Weather Warning Active Notice: Record Report

Elev 6972 ft 41.77 °N, 110.54 °W | Updated 4 minutes ago

Clear
Clear
74.3 °F
Feels Like 75 °F
N
8.0
Wind Variable Wind from West
Gusts 16.0 mph

Today
High -- | Low -- °F
--% Chance of Precip.
Yesterday
High -- | Low -- °F
Precip. -- in
Pressure 30.19 in
Visibility 10.0 miles
Clouds Clear
Heat Index 75 °F
Dew Point 27 °F
Humidity 17%
Rainfall 0.00 in
Snow Depth Not available.
6:42 AM 8:01 PM
Waning Crescent, 20% visible
METAR KFBR 280015Z AUTO 30017G22KT 10SM CLR 25/M06 A3019 RMK AO2 T02451060
Pressure 30.19 in
Visibility 10.0 miles
Clouds Clear
Heat Index 75 °F
Dew Point 27 °F
Humidity 17%
Rainfall 0.00 in
Snow Depth Not available.
6:42 AM 8:01 PM
Waning Crescent, 20% visible
METAR KFBR 280015Z AUTO 30017G22KT 10SM CLR 25/M06 A3019 RMK AO2 T02451060

10-Day Weather Forecast

Almanac

Astronomy

Aug. 27, 2016 Rise Set
Actual Time
Civil Twilight
Nautical Twilight
Astronomical Twilight
Moon
Length of Visible Light
Length of Day
Tomorrow will be .
, % of the Moon is Illuminated

Today's Extremes

State Highs State Lows

Community

WunderPhotos

Upload Photos

1,935,475 photos uploaded!

WunderBlog® & News

Nearby

Air Quality

  Air Quality AQ Index Pollutant
Not available.

Snow Depth

Station Depth Elevation

Earthquake Activity

City Distance Mag. Time & Date
Minimum magnitude displayed is 2.5.

Coastal Water Temperatures

Place Temperature

Stations

Nearby Weather Stations

Station Location Temp. Windchill Dew Point Humidity Wind Precip. Elev Updated Type
                   

Watches & Warnings

Fire Weather Warning
Issued: 1:46 PM MDT Aug. 27, 2016 – National Weather Service

... Red flag warning remains in effect until 8 PM MDT this evening
for low humidity... strong wind gusts... and critically dry fuels
for fire weather zones 277... 278 and 279...

* wind... southwest 10 to 15 with gusts to 25 mph in the
afternoon and early evening hours.

* Humidity... 10 to 15 percent.

* Impacts... any fires that develop will likely spread rapidly.
Outdoor burning is strongly discouraged.

Precautionary/preparedness actions...

A red flag warning means that critical fire weather conditions
are either occurring now... .or will shortly. A combination of
strong winds... low relative humidity... and warm temperatures can
contribute to extreme fire behavior.